sensor_id;sensor_type;location;lat;lon;timestamp;pressure;altitude;pressure_sealevel;temperature;humidity
84593;BME280;74832;51.656;5.298;2024-02-26T00:00:09;99877.14;;;16.69;64.38
84593;BME280;74832;51.656;5.298;2024-02-26T00:00:40;99876.50;;;16.67;64.38
84593;BME280;74832;51.656;5.298;2024-02-26T00:01:10;99878.47;;;16.63;64.48
84593;BME280;74832;51.656;5.298;2024-02-26T00:01:41;99877.34;;;16.62;64.57
84593;BME280;74832;51.656;5.298;2024-02-26T00:02:11;99878.85;;;16.65;64.37
84593;BME280;74832;51.656;5.298;2024-02-26T00:02:42;99879.68;;;16.64;64.50
84593;BME280;74832;51.656;5.298;2024-02-26T00:03:12;99875.49;;;16.68;64.35
84593;BME280;74832;51.656;5.298;2024-02-26T00:03:42;99872.32;;;16.71;64.18
84593;BME280;74832;51.656;5.298;2024-02-26T00:04:13;99873.90;;;16.72;64.15
84593;BME280;74832;51.656;5.298;2024-02-26T00:04:43;99873.07;;;16.75;64.15
84593;BME280;74832;51.656;5.298;2024-02-26T00:05:14;99872.43;;;16.78;64.00
84593;BME280;74832;51.656;5.298;2024-02-26T00:05:44;99874.08;;;16.75;64.02
84593;BME280;74832;51.656;5.298;2024-02-26T00:06:15;99870.92;;;16.73;64.14
84593;BME280;74832;51.656;5.298;2024-02-26T00:06:45;99871.58;;;16.73;64.11
84593;BME280;74832;51.656;5.298;2024-02-26T00:07:15;99871.90;;;16.73;64.07
84593;BME280;74832;51.656;5.298;2024-02-26T00:07:46;99873.29;;;16.73;64.04
84593;BME280;74832;51.656;5.298;2024-02-26T00:08:16;99872.76;;;16.76;63.97
84593;BME280;74832;51.656;5.298;2024-02-26T00:08:47;99874.55;;;16.76;63.91
84593;BME280;74832;51.656;5.298;2024-02-26T00:09:17;99872.59;;;16.75;63.85
84593;BME280;74832;51.656;5.298;2024-02-26T00:09:47;99873.94;;;16.71;63.97
84593;BME280;74832;51.656;5.298;2024-02-26T00:10:18;99872.72;;;16.67;64.21
84593;BME280;74832;51.656;5.298;2024-02-26T00:10:48;99874.16;;;16.65;64.22
84593;BME280;74832;51.656;5.298;2024-02-26T00:11:19;99873.67;;;16.66;64.22
84593;BME280;74832;51.656;5.298;2024-02-26T00:11:49;99872.62;;;16.66;64.14
84593;BME280;74832;51.656;5.298;2024-02-26T00:12:19;99875.67;;;16.61;64.32
84593;BME280;74832;51.656;5.298;2024-02-26T00:12:50;99876.30;;;16.66;64.22
84593;BME280;74832;51.656;5.298;2024-02-26T00:13:20;99875.41;;;16.65;64.26
84593;BME280;74832;51.656;5.298;2024-02-26T00:13:50;99881.32;;;16.66;64.12
84593;BME280;74832;51.656;5.298;2024-02-26T00:14:21;99881.76;;;16.65;64.29
84593;BME280;74832;51.656;5.298;2024-02-26T00:14:51;99879.07;;;16.67;64.21
84593;BME280;74832;51.656;5.298;2024-02-26T00:15:22;99881.45;;;16.66;64.22
84593;BME280;74832;51.656;5.298;2024-02-26T00:15:52;99882.32;;;16.65;64.21
84593;BME280;74832;51.656;5.298;2024-02-26T00:16:22;99885.09;;;16.68;64.12
84593;BME280;74832;51.656;5.298;2024-02-26T00:16:53;99887.32;;;16.68;64.08
84593;BME280;74832;51.656;5.298;2024-02-26T00:17:23;99888.75;;;16.66;64.09
84593;BME280;74832;51.656;5.298;2024-02-26T00:17:53;99891.78;;;16.69;64.03
84593;BME280;74832;51.656;5.298;2024-02-26T00:18:24;99887.55;;;16.69;64.10
84593;BME280;74832;51.656;5.298;2024-02-26T00:18:54;99892.44;;;16.68;64.08
84593;BME280;74832;51.656;5.298;2024-02-26T00:19:25;99893.64;;;16.68;64.03
84593;BME280;74832;51.656;5.298;2024-02-26T00:19:55;99893.34;;;16.65;64.07
84593;BME280;74832;51.656;5.298;2024-02-26T00:20:25;99896.18;;;16.68;64.06
84593;BME280;74832;51.656;5.298;2024-02-26T00:20:56;99892.03;;;16.62;64.16
84593;BME280;74832;51.656;5.298;2024-02-26T00:21:26;99897.91;;;16.66;64.08
84593;BME280;74832;51.656;5.298;2024-02-26T00:21:57;99899.52;;;16.66;64.06
84593;BME280;74832;51.656;5.298;2024-02-26T00:22:27;99896.46;;;16.64;64.00
84593;BME280;74832;51.656;5.298;2024-02-26T00:22:57;99900.03;;;16.67;63.95
84593;BME280;74832;51.656;5.298;2024-02-26T00:23:28;99896.21;;;16.69;63.82
84593;BME280;74832;51.656;5.298;2024-02-26T00:23:59;99899.32;;;16.71;63.81
84593;BME280;74832;51.656;5.298;2024-02-26T00:24:29;99899.60;;;16.68;63.91
84593;BME280;74832;51.656;5.298;2024-02-26T00:25:00;99901.50;;;16.65;63.97
84593;BME280;74832;51.656;5.298;2024-02-26T00:25:30;99901.71;;;16.65;64.02
84593;BME280;74832;51.656;5.298;2024-02-26T00:26:00;99899.71;;;16.64;63.97
84593;BME280;74832;51.656;5.298;2024-02-26T00:26:31;99899.69;;;16.59;64.15
84593;BME280;74832;51.656;5.298;2024-02-26T00:27:01;99899.22;;;16.58;64.12
84593;BME280;74832;51.656;5.298;2024-02-26T00:27:31;99897.01;;;16.57;64.21
84593;BME280;74832;51.656;5.298;2024-02-26T00:28:02;99899.27;;;16.60;64.16
84593;BME280;74832;51.656;5.298;2024-02-26T00:28:32;99894.64;;;16.57;64.22
84593;BME280;74832;51.656;5.298;2024-02-26T00:29:03;99893.35;;;16.65;64.03
84593;BME280;74832;51.656;5.298;2024-02-26T00:29:33;99895.27;;;16.68;63.88
84593;BME280;74832;51.656;5.298;2024-02-26T00:30:04;99894.59;;;16.67;63.87
84593;BME280;74832;51.656;5.298;2024-02-26T00:30:35;99894.17;;;16.65;63.91
84593;BME280;74832;51.656;5.298;2024-02-26T00:31:05;99891.52;;;16.67;63.84
84593;BME280;74832;51.656;5.298;2024-02-26T00:31:36;99893.85;;;16.68;63.81
84593;BME280;74832;51.656;5.298;2024-02-26T00:32:07;99889.69;;;16.69;63.71
84593;BME280;74832;51.656;5.298;2024-02-26T00:32:37;99889.07;;;16.68;63.72
84593;BME280;74832;51.656;5.298;2024-02-26T00:33:07;99892.69;;;16.67;63.78
84593;BME280;74832;51.656;5.298;2024-02-26T00:33:38;99890.70;;;16.68;63.75
84593;BME280;74832;51.656;5.298;2024-02-26T00:34:08;99888.11;;;16.67;63.74
84593;BME280;74832;51.656;5.298;2024-02-26T00:34:38;99891.66;;;16.67;63.84
84593;BME280;74832;51.656;5.298;2024-02-26T00:35:09;99893.14;;;16.66;63.78
84593;BME280;74832;51.656;5.298;2024-02-26T00:35:39;99892.07;;;16.67;63.74
84593;BME280;74832;51.656;5.298;2024-02-26T00:36:10;99889.24;;;16.61;63.91
84593;BME280;74832;51.656;5.298;2024-02-26T00:36:40;99883.21;;;16.62;63.83
84593;BME280;74832;51.656;5.298;2024-02-26T00:37:10;99882.74;;;16.63;63.87
84593;BME280;74832;51.656;5.298;2024-02-26T00:37:41;99884.42;;;16.63;63.85
84593;BME280;74832;51.656;5.298;2024-02-26T00:38:11;99884.53;;;16.60;63.86
84593;BME280;74832;51.656;5.298;2024-02-26T00:38:41;99889.90;;;16.55;63.98
84593;BME280;74832;51.656;5.298;2024-02-26T00:39:12;99885.83;;;16.57;64.03
84593;BME280;74832;51.656;5.298;2024-02-26T00:39:42;99885.43;;;16.58;64.00
84593;BME280;74832;51.656;5.298;2024-02-26T00:40:13;99885.52;;;16.60;63.88
84593;BME280;74832;51.656;5.298;2024-02-26T00:40:43;99882.87;;;16.51;64.18
84593;BME280;74832;51.656;5.298;2024-02-26T00:41:14;99881.32;;;16.53;64.07
84593;BME280;74832;51.656;5.298;2024-02-26T00:41:44;99880.93;;;16.60;63.88
84593;BME280;74832;51.656;5.298;2024-02-26T00:42:14;99880.04;;;16.57;64.03
84593;BME280;74832;51.656;5.298;2024-02-26T00:42:45;99874.22;;;16.57;63.96
84593;BME280;74832;51.656;5.298;2024-02-26T00:43:15;99881.29;;;16.60;63.84
84593;BME280;74832;51.656;5.298;2024-02-26T00:43:46;99882.41;;;16.65;63.73
84593;BME280;74832;51.656;5.298;2024-02-26T00:44:17;99878.09;;;16.62;63.74
84593;BME280;74832;51.656;5.298;2024-02-26T00:44:47;99878.94;;;16.60;63.78
84593;BME280;74832;51.656;5.298;2024-02-26T00:45:18;99877.04;;;16.64;63.71
84593;BME280;74832;51.656;5.298;2024-02-26T00:45:48;99876.68;;;16.65;63.64
84593;BME280;74832;51.656;5.298;2024-02-26T00:46:18;99874.39;;;16.60;63.78
84593;BME280;74832;51.656;5.298;2024-02-26T00:46:49;99876.58;;;16.55;63.90
84593;BME280;74832;51.656;5.298;2024-02-26T00:47:19;99875.77;;;16.57;63.88
84593;BME280;74832;51.656;5.298;2024-02-26T00:47:49;99882.90;;;16.57;63.88
84593;BME280;74832;51.656;5.298;2024-02-26T00:48:20;99878.57;;;16.52;63.97
84593;BME280;74832;51.656;5.298;2024-02-26T00:48:50;99875.95;;;16.55;63.87
84593;BME280;74832;51.656;5.298;2024-02-26T00:49:20;99877.08;;;16.56;63.84
84593;BME280;74832;51.656;5.298;2024-02-26T00:49:51;99878.26;;;16.54;63.89
84593;BME280;74832;51.656;5.298;2024-02-26T00:50:21;99881.93;;;16.54;63.82
84593;BME280;74832;51.656;5.298;2024-02-26T00:50:52;99878.29;;;16.53;63.89
84593;BME280;74832;51.656;5.298;2024-02-26T00:51:22;99877.93;;;16.53;63.85
84593;BME280;74832;51.656;5.298;2024-02-26T00:51:52;99880.22;;;16.50;64.03
84593;BME280;74832;51.656;5.298;2024-02-26T00:52:23;99878.61;;;16.57;63.83
84593;BME280;74832;51.656;5.298;2024-02-26T00:52:53;99877.33;;;16.53;63.89
84593;BME280;74832;51.656;5.298;2024-02-26T00:53:23;99880.80;;;16.58;63.77
84593;BME280;74832;51.656;5.298;2024-02-26T00:53:54;99882.67;;;16.59;63.69
84593;BME280;74832;51.656;5.298;2024-02-26T00:54:25;99879.70;;;16.57;63.70
84593;BME280;74832;51.656;5.298;2024-02-26T00:54:55;99881.19;;;16.60;63.62
84593;BME280;74832;51.656;5.298;2024-02-26T00:55:25;99880.23;;;16.60;63.67
84593;BME280;74832;51.656;5.298;2024-02-26T00:55:56;99884.65;;;16.63;63.52
84593;BME280;74832;51.656;5.298;2024-02-26T00:56:26;99887.59;;;16.56;63.71
84593;BME280;74832;51.656;5.298;2024-02-26T00:56:57;99893.86;;;16.57;63.78
84593;BME280;74832;51.656;5.298;2024-02-26T00:57:27;99887.52;;;16.60;63.66
84593;BME280;74832;51.656;5.298;2024-02-26T00:57:57;99892.05;;;16.55;63.69
84593;BME280;74832;51.656;5.298;2024-02-26T00:58:28;99892.37;;;16.54;63.81
84593;BME280;74832;51.656;5.298;2024-02-26T00:58:58;99893.65;;;16.55;63.75
84593;BME280;74832;51.656;5.298;2024-02-26T00:59:29;99891.67;;;16.53;63.86
84593;BME280;74832;51.656;5.298;2024-02-26T00:59:59;99891.73;;;16.56;63.76
84593;BME280;74832;51.656;5.298;2024-02-26T01:00:29;99892.94;;;16.58;63.75
84593;BME280;74832;51.656;5.298;2024-02-26T01:01:00;99897.09;;;16.57;63.72
84593;BME280;74832;51.656;5.298;2024-02-26T01:01:30;99895.81;;;16.59;63.67
84593;BME280;74832;51.656;5.298;2024-02-26T01:02:01;99900.29;;;16.58;63.70
84593;BME280;74832;51.656;5.298;2024-02-26T01:02:31;99899.24;;;16.59;63.65
84593;BME280;74832;51.656;5.298;2024-02-26T01:03:01;99899.82;;;16.56;63.74
84593;BME280;74832;51.656;5.298;2024-02-26T01:03:32;99899.77;;;16.57;63.66
84593;BME280;74832;51.656;5.298;2024-02-26T01:04:02;99897.17;;;16.57;63.70
84593;BME280;74832;51.656;5.298;2024-02-26T01:04:33;99894.79;;;16.57;63.70
84593;BME280;74832;51.656;5.298;2024-02-26T01:05:04;99893.93;;;16.47;63.89
84593;BME280;74832;51.656;5.298;2024-02-26T01:05:34;99894.52;;;16.49;63.93
84593;BME280;74832;51.656;5.298;2024-02-26T01:06:05;99892.74;;;16.52;63.86
84593;BME280;74832;51.656;5.298;2024-02-26T01:06:35;99892.14;;;16.54;63.78
84593;BME280;74832;51.656;5.298;2024-02-26T01:07:05;99892.55;;;16.50;63.80
84593;BME280;74832;51.656;5.298;2024-02-26T01:07:36;99893.03;;;16.54;63.78
84593;BME280;74832;51.656;5.298;2024-02-26T01:08:06;99891.11;;;16.49;63.85
84593;BME280;74832;51.656;5.298;2024-02-26T01:08:37;99893.22;;;16.47;63.95
84593;BME280;74832;51.656;5.298;2024-02-26T01:09:07;99891.34;;;16.46;63.97
84593;BME280;74832;51.656;5.298;2024-02-26T01:09:37;99892.76;;;16.51;63.85
84593;BME280;74832;51.656;5.298;2024-02-26T01:10:08;99892.41;;;16.51;63.84
84593;BME280;74832;51.656;5.298;2024-02-26T01:10:39;99890.48;;;16.47;63.93
84593;BME280;74832;51.656;5.298;2024-02-26T01:11:09;99892.63;;;16.53;63.76
84593;BME280;74832;51.656;5.298;2024-02-26T01:11:40;99891.27;;;16.58;63.65
84593;BME280;74832;51.656;5.298;2024-02-26T01:12:10;99896.21;;;16.61;63.60
84593;BME280;74832;51.656;5.298;2024-02-26T01:12:40;99895.43;;;16.61;63.48
84593;BME280;74832;51.656;5.298;2024-02-26T01:13:11;99891.53;;;16.55;63.64
84593;BME280;74832;51.656;5.298;2024-02-26T01:13:41;99896.28;;;16.54;63.61
84593;BME280;74832;51.656;5.298;2024-02-26T01:14:11;99894.40;;;16.52;63.68
84593;BME280;74832;51.656;5.298;2024-02-26T01:14:42;99892.17;;;16.51;63.72
84593;BME280;74832;51.656;5.298;2024-02-26T01:15:12;99891.77;;;16.49;63.82
84593;BME280;74832;51.656;5.298;2024-02-26T01:15:43;99893.02;;;16.53;63.71
84593;BME280;74832;51.656;5.298;2024-02-26T01:16:13;99893.93;;;16.55;63.78
84593;BME280;74832;51.656;5.298;2024-02-26T01:16:44;99892.57;;;16.59;63.48
84593;BME280;74832;51.656;5.298;2024-02-26T01:17:14;99892.69;;;16.55;63.51
84593;BME280;74832;51.656;5.298;2024-02-26T01:17:44;99891.49;;;16.51;63.67
84593;BME280;74832;51.656;5.298;2024-02-26T01:18:15;99889.14;;;16.51;63.67
84593;BME280;74832;51.656;5.298;2024-02-26T01:18:45;99889.69;;;16.58;63.50
84593;BME280;74832;51.656;5.298;2024-02-26T01:19:16;99888.15;;;16.55;63.52
84593;BME280;74832;51.656;5.298;2024-02-26T01:19:46;99887.21;;;16.54;63.51
84593;BME280;74832;51.656;5.298;2024-02-26T01:20:16;99887.30;;;16.54;63.55
84593;BME280;74832;51.656;5.298;2024-02-26T01:20:47;99892.46;;;16.57;63.42
84593;BME280;74832;51.656;5.298;2024-02-26T01:21:17;99893.20;;;16.56;63.49
84593;BME280;74832;51.656;5.298;2024-02-26T01:21:48;99894.99;;;16.57;63.40
84593;BME280;74832;51.656;5.298;2024-02-26T01:22:18;99890.38;;;16.54;63.46
84593;BME280;74832;51.656;5.298;2024-02-26T01:22:48;99887.81;;;16.54;63.51
84593;BME280;74832;51.656;5.298;2024-02-26T01:23:19;99890.82;;;16.58;63.34
84593;BME280;74832;51.656;5.298;2024-02-26T01:23:49;99892.49;;;16.51;63.48
84593;BME280;74832;51.656;5.298;2024-02-26T01:24:20;99895.48;;;16.50;63.51
84593;BME280;74832;51.656;5.298;2024-02-26T01:24:50;99891.79;;;16.51;63.47
84593;BME280;74832;51.656;5.298;2024-02-26T01:25:20;99889.71;;;16.52;63.45
84593;BME280;74832;51.656;5.298;2024-02-26T01:25:51;99894.93;;;16.50;63.50
84593;BME280;74832;51.656;5.298;2024-02-26T01:26:21;99888.56;;;16.56;63.35
84593;BME280;74832;51.656;5.298;2024-02-26T01:26:52;99892.04;;;16.52;63.42
84593;BME280;74832;51.656;5.298;2024-02-26T01:27:22;99891.99;;;16.50;63.51
84593;BME280;74832;51.656;5.298;2024-02-26T01:27:53;99894.85;;;16.46;63.61
84593;BME280;74832;51.656;5.298;2024-02-26T01:28:23;99893.27;;;16.46;63.60
84593;BME280;74832;51.656;5.298;2024-02-26T01:28:53;99890.03;;;16.49;63.54
84593;BME280;74832;51.656;5.298;2024-02-26T01:29:24;99890.20;;;16.48;63.51
84593;BME280;74832;51.656;5.298;2024-02-26T01:29:54;99891.84;;;16.53;63.39
84593;BME280;74832;51.656;5.298;2024-02-26T01:30:25;99892.23;;;16.48;63.53
84593;BME280;74832;51.656;5.298;2024-02-26T01:30:55;99892.35;;;16.49;63.59
84593;BME280;74832;51.656;5.298;2024-02-26T01:31:25;99893.80;;;16.47;63.57
84593;BME280;74832;51.656;5.298;2024-02-26T01:31:56;99893.23;;;16.53;63.31
84593;BME280;74832;51.656;5.298;2024-02-26T01:32:26;99897.46;;;16.46;63.55
84593;BME280;74832;51.656;5.298;2024-02-26T01:32:57;99896.84;;;16.48;63.51
84593;BME280;74832;51.656;5.298;2024-02-26T01:33:27;99892.15;;;16.45;63.52
84593;BME280;74832;51.656;5.298;2024-02-26T01:33:57;99894.62;;;16.46;63.47
84593;BME280;74832;51.656;5.298;2024-02-26T01:34:28;99895.65;;;16.46;63.41
84593;BME280;74832;51.656;5.298;2024-02-26T01:34:58;99895.62;;;16.48;63.46
84593;BME280;74832;51.656;5.298;2024-02-26T01:35:28;99893.43;;;16.47;63.43
84593;BME280;74832;51.656;5.298;2024-02-26T01:35:59;99889.25;;;16.44;63.52
84593;BME280;74832;51.656;5.298;2024-02-26T01:36:29;99894.14;;;16.43;63.58
84593;BME280;74832;51.656;5.298;2024-02-26T01:37:00;99891.24;;;16.47;63.50
84593;BME280;74832;51.656;5.298;2024-02-26T01:37:30;99891.90;;;16.43;63.55
84593;BME280;74832;51.656;5.298;2024-02-26T01:38:00;99889.17;;;16.45;63.57
84593;BME280;74832;51.656;5.298;2024-02-26T01:38:31;99893.46;;;16.48;63.45
84593;BME280;74832;51.656;5.298;2024-02-26T01:39:01;99895.44;;;16.45;63.54
84593;BME280;74832;51.656;5.298;2024-02-26T01:39:32;99894.64;;;16.46;63.46
84593;BME280;74832;51.656;5.298;2024-02-26T01:40:02;99897.87;;;16.44;63.54
84593;BME280;74832;51.656;5.298;2024-02-26T01:40:33;99893.80;;;16.49;63.40
84593;BME280;74832;51.656;5.298;2024-02-26T01:41:03;99896.03;;;16.46;63.43
84593;BME280;74832;51.656;5.298;2024-02-26T01:41:33;99896.91;;;16.49;63.41
84593;BME280;74832;51.656;5.298;2024-02-26T01:42:04;99900.42;;;16.44;63.52
84593;BME280;74832;51.656;5.298;2024-02-26T01:42:34;99892.51;;;16.44;63.50
84593;BME280;74832;51.656;5.298;2024-02-26T01:43:08;99895.77;;;16.44;63.54
84593;BME280;74832;51.656;5.298;2024-02-26T01:43:38;99895.24;;;16.43;63.52
84593;BME280;74832;51.656;5.298;2024-02-26T01:44:11;99896.25;;;16.47;63.40
84593;BME280;74832;51.656;5.298;2024-02-26T01:44:42;99900.44;;;16.51;63.35
84593;BME280;74832;51.656;5.298;2024-02-26T01:45:15;99894.44;;;16.46;63.48
84593;BME280;74832;51.656;5.298;2024-02-26T01:45:45;99900.14;;;16.43;63.53
84593;BME280;74832;51.656;5.298;2024-02-26T01:46:16;99900.38;;;16.45;63.45
84593;BME280;74832;51.656;5.298;2024-02-26T01:46:47;99901.04;;;16.48;63.41
84593;BME280;74832;51.656;5.298;2024-02-26T01:47:18;99900.74;;;16.46;63.43
84593;BME280;74832;51.656;5.298;2024-02-26T01:47:50;99902.14;;;16.48;63.38
84593;BME280;74832;51.656;5.298;2024-02-26T01:48:21;99905.60;;;16.52;63.32
84593;BME280;74832;51.656;5.298;2024-02-26T01:48:51;99903.38;;;16.47;63.33
84593;BME280;74832;51.656;5.298;2024-02-26T01:49:22;99899.43;;;16.47;63.36
84593;BME280;74832;51.656;5.298;2024-02-26T01:49:52;99904.34;;;16.43;63.49
84593;BME280;74832;51.656;5.298;2024-02-26T01:50:23;99897.52;;;16.41;63.54
84593;BME280;74832;51.656;5.298;2024-02-26T01:50:54;99897.06;;;16.45;63.50
84593;BME280;74832;51.656;5.298;2024-02-26T01:51:24;99897.48;;;16.42;63.50
84593;BME280;74832;51.656;5.298;2024-02-26T01:51:56;99896.10;;;16.33;63.73
84593;BME280;74832;51.656;5.298;2024-02-26T01:52:27;99896.44;;;16.33;63.79
84593;BME280;74832;51.656;5.298;2024-02-26T01:52:57;99897.41;;;16.34;63.77
84593;BME280;74832;51.656;5.298;2024-02-26T01:53:28;99893.25;;;16.37;63.69
84593;BME280;74832;51.656;5.298;2024-02-26T01:53:59;99900.70;;;16.31;63.79
84593;BME280;74832;51.656;5.298;2024-02-26T01:54:30;99901.30;;;16.34;63.71
84593;BME280;74832;51.656;5.298;2024-02-26T01:55:01;99900.47;;;16.40;63.61
84593;BME280;74832;51.656;5.298;2024-02-26T01:55:31;99903.13;;;16.32;63.85
84593;BME280;74832;51.656;5.298;2024-02-26T01:56:03;99905.40;;;16.34;63.75
84593;BME280;74832;51.656;5.298;2024-02-26T01:56:34;99913.60;;;16.35;63.74
84593;BME280;74832;51.656;5.298;2024-02-26T01:57:06;99920.48;;;16.37;63.74
84593;BME280;74832;51.656;5.298;2024-02-26T01:57:39;99918.73;;;16.37;63.70
84593;BME280;74832;51.656;5.298;2024-02-26T01:58:09;99913.22;;;16.39;63.64
84593;BME280;74832;51.656;5.298;2024-02-26T01:58:41;99912.33;;;16.37;63.70
84593;BME280;74832;51.656;5.298;2024-02-26T01:59:11;99915.02;;;16.39;63.66
84593;BME280;74832;51.656;5.298;2024-02-26T01:59:42;99913.79;;;16.43;63.44
84593;BME280;74832;51.656;5.298;2024-02-26T02:00:14;99914.89;;;16.39;63.59
84593;BME280;74832;51.656;5.298;2024-02-26T02:00:45;99911.85;;;16.38;63.63
84593;BME280;74832;51.656;5.298;2024-02-26T02:01:17;99915.78;;;16.37;63.64
84593;BME280;74832;51.656;5.298;2024-02-26T02:01:53;99912.25;;;16.42;63.46
84593;BME280;74832;51.656;5.298;2024-02-26T02:02:24;99913.15;;;16.35;63.65
84593;BME280;74832;51.656;5.298;2024-02-26T02:02:55;99914.88;;;16.33;63.65
84593;BME280;74832;51.656;5.298;2024-02-26T02:03:26;99914.95;;;16.34;63.70
84593;BME280;74832;51.656;5.298;2024-02-26T02:03:58;99917.10;;;16.30;63.80
84593;BME280;74832;51.656;5.298;2024-02-26T02:04:29;99910.88;;;16.34;63.71
84593;BME280;74832;51.656;5.298;2024-02-26T02:05:00;99916.58;;;16.35;63.71
84593;BME280;74832;51.656;5.298;2024-02-26T02:05:31;99913.65;;;16.36;63.71
84593;BME280;74832;51.656;5.298;2024-02-26T02:06:02;99909.12;;;16.37;63.64
84593;BME280;74832;51.656;5.298;2024-02-26T02:06:33;99912.42;;;16.41;63.52
84593;BME280;74832;51.656;5.298;2024-02-26T02:07:04;99913.58;;;16.37;63.54
84593;BME280;74832;51.656;5.298;2024-02-26T02:07:35;99914.29;;;16.37;63.65
84593;BME280;74832;51.656;5.298;2024-02-26T02:08:07;99913.63;;;16.37;63.60
84593;BME280;74832;51.656;5.298;2024-02-26T02:08:37;99923.06;;;16.36;63.64
84593;BME280;74832;51.656;5.298;2024-02-26T02:09:08;99923.41;;;16.37;63.66
84593;BME280;74832;51.656;5.298;2024-02-26T02:09:39;99923.74;;;16.39;63.54
84593;BME280;74832;51.656;5.298;2024-02-26T02:10:10;99923.60;;;16.36;63.57
84593;BME280;74832;51.656;5.298;2024-02-26T02:10:41;99923.49;;;16.36;63.62
84593;BME280;74832;51.656;5.298;2024-02-26T02:11:12;99922.99;;;16.40;63.55
84593;BME280;74832;51.656;5.298;2024-02-26T02:11:42;99926.77;;;16.42;63.48
84593;BME280;74832;51.656;5.298;2024-02-26T02:12:13;99932.13;;;16.40;63.47
84593;BME280;74832;51.656;5.298;2024-02-26T02:12:43;99928.10;;;16.40;63.53
84593;BME280;74832;51.656;5.298;2024-02-26T02:13:14;99932.48;;;16.37;63.57
84593;BME280;74832;51.656;5.298;2024-02-26T02:13:44;99930.05;;;16.42;63.46
84593;BME280;74832;51.656;5.298;2024-02-26T02:14:14;99934.05;;;16.41;63.43
84593;BME280;74832;51.656;5.298;2024-02-26T02:14:45;99928.26;;;16.41;63.45
84593;BME280;74832;51.656;5.298;2024-02-26T02:15:15;99935.85;;;16.38;63.45
84593;BME280;74832;51.656;5.298;2024-02-26T02:15:46;99933.12;;;16.38;63.47
84593;BME280;74832;51.656;5.298;2024-02-26T02:16:16;99934.36;;;16.38;63.49
84593;BME280;74832;51.656;5.298;2024-02-26T02:16:47;99934.22;;;16.35;63.62
84593;BME280;74832;51.656;5.298;2024-02-26T02:17:17;99931.75;;;16.33;63.60
84593;BME280;74832;51.656;5.298;2024-02-26T02:17:48;99927.58;;;16.41;63.53
84593;BME280;74832;51.656;5.298;2024-02-26T02:18:19;99923.65;;;16.39;63.47
84593;BME280;74832;51.656;5.298;2024-02-26T02:18:49;99932.53;;;16.36;63.59
84593;BME280;74832;51.656;5.298;2024-02-26T02:19:20;99929.74;;;16.36;63.58
84593;BME280;74832;51.656;5.298;2024-02-26T02:19:50;99931.48;;;16.38;63.46
84593;BME280;74832;51.656;5.298;2024-02-26T02:20:24;99925.53;;;16.39;63.43
84593;BME280;74832;51.656;5.298;2024-02-26T02:20:55;99929.05;;;16.31;63.59
84593;BME280;74832;51.656;5.298;2024-02-26T02:21:25;99925.88;;;16.32;63.66
84593;BME280;74832;51.656;5.298;2024-02-26T02:21:56;99922.74;;;16.35;63.57
84593;BME280;74832;51.656;5.298;2024-02-26T02:22:26;99924.32;;;16.36;63.59
84593;BME280;74832;51.656;5.298;2024-02-26T02:22:56;99924.85;;;16.40;63.40
84593;BME280;74832;51.656;5.298;2024-02-26T02:23:27;99926.19;;;16.35;63.49
84593;BME280;74832;51.656;5.298;2024-02-26T02:23:57;99920.72;;;16.41;63.38
84593;BME280;74832;51.656;5.298;2024-02-26T02:24:27;99926.88;;;16.38;63.42
84593;BME280;74832;51.656;5.298;2024-02-26T02:24:58;99928.41;;;16.41;63.33
84593;BME280;74832;51.656;5.298;2024-02-26T02:25:28;99921.19;;;16.43;63.28
84593;BME280;74832;51.656;5.298;2024-02-26T02:25:59;99921.19;;;16.41;63.38
84593;BME280;74832;51.656;5.298;2024-02-26T02:26:29;99922.00;;;16.40;63.41
84593;BME280;74832;51.656;5.298;2024-02-26T02:27:00;99930.26;;;16.37;63.45
84593;BME280;74832;51.656;5.298;2024-02-26T02:27:31;99922.01;;;16.38;63.41
84593;BME280;74832;51.656;5.298;2024-02-26T02:28:01;99925.26;;;16.38;63.36
84593;BME280;74832;51.656;5.298;2024-02-26T02:28:32;99924.85;;;16.35;63.49
84593;BME280;74832;51.656;5.298;2024-02-26T02:29:03;99924.54;;;16.35;63.48
84593;BME280;74832;51.656;5.298;2024-02-26T02:29:34;99919.20;;;16.38;63.37
84593;BME280;74832;51.656;5.298;2024-02-26T02:30:06;99920.69;;;16.36;63.31
84593;BME280;74832;51.656;5.298;2024-02-26T02:30:37;99924.42;;;16.36;63.38
84593;BME280;74832;51.656;5.298;2024-02-26T02:31:09;99925.32;;;16.35;63.42
84593;BME280;74832;51.656;5.298;2024-02-26T02:31:39;99925.89;;;16.31;63.42
84593;BME280;74832;51.656;5.298;2024-02-26T02:32:10;99927.49;;;16.32;63.53
84593;BME280;74832;51.656;5.298;2024-02-26T02:32:41;99925.87;;;16.28;63.64
84593;BME280;74832;51.656;5.298;2024-02-26T02:33:11;99925.68;;;16.30;63.58
84593;BME280;74832;51.656;5.298;2024-02-26T02:33:42;99923.96;;;16.32;63.54
84593;BME280;74832;51.656;5.298;2024-02-26T02:34:13;99923.29;;;16.35;63.43
84593;BME280;74832;51.656;5.298;2024-02-26T02:34:45;99923.56;;;16.34;63.48
84593;BME280;74832;51.656;5.298;2024-02-26T02:35:15;99927.82;;;16.36;63.37
84593;BME280;74832;51.656;5.298;2024-02-26T02:35:46;99923.46;;;16.36;63.38
84593;BME280;74832;51.656;5.298;2024-02-26T02:36:16;99923.89;;;16.34;63.44
84593;BME280;74832;51.656;5.298;2024-02-26T02:36:49;99925.76;;;16.33;63.53
84593;BME280;74832;51.656;5.298;2024-02-26T02:37:19;99925.12;;;16.28;63.51
84593;BME280;74832;51.656;5.298;2024-02-26T02:37:50;99923.94;;;16.31;63.60
84593;BME280;74832;51.656;5.298;2024-02-26T02:38:21;99923.62;;;16.36;63.41
84593;BME280;74832;51.656;5.298;2024-02-26T02:38:51;99926.07;;;16.35;63.36
84593;BME280;74832;51.656;5.298;2024-02-26T02:39:22;99922.91;;;16.38;63.22
84593;BME280;74832;51.656;5.298;2024-02-26T02:39:52;99925.68;;;16.31;63.46
84593;BME280;74832;51.656;5.298;2024-02-26T02:40:22;99927.36;;;16.38;63.33
84593;BME280;74832;51.656;5.298;2024-02-26T02:40:53;99930.14;;;16.33;63.48
84593;BME280;74832;51.656;5.298;2024-02-26T02:41:23;99923.69;;;16.34;63.48
84593;BME280;74832;51.656;5.298;2024-02-26T02:41:54;99927.52;;;16.30;63.50